Oluja — V7QE8 — position and weather

sailwx.info

Track history (hours):
 
Tides and Currents Weather Stations Pressure Air Temp Water Temp Dewpoint Dewpoint Depression Visibility Wind Speed Wind Dir Waves Ship Positions

Oluja

Last reported at 2017-Jan-15 23:14 UTC. Time now 2017-Jan-16 10:50 UTC.
Position N 36°21' E 018°08'.

Length 188 m; draft 9.2 m.

Type: Cargo ship. MMSI: 538003345.

Date/timePositionNaut miles runAvg speedWind from/ knotsBaromVisibWave heightAir tempDewpointWater temp
2017-Jan-15 23:14N 36°21' E 018°08'811.8
2017-Jan-15 22:33N 36°21' E 018°18'1211.9
2017-Jan-15 21:33N 36°21' E 018°33'1212.5
2017-Jan-15 20:33N 36°21' E 018°48'1212.4
2017-Jan-15 19:33N 36°21' E 019°04'1212.4
2017-Jan-15 18:33N 36°20' E 019°19'1312.8
2017-Jan-15 17:33N 36°20' E 019°35'1313.0
2017-Jan-15 16:33N 36°20' E 019°51'1212.3
2017-Jan-15 15:34N 36°20' E 020°07'5 4.8
2017-Jan-15 14:33N 36°19' E 020°12'9 8.7
2017-Jan-15 13:33N 36°19' E 020°23'1212.2
2017-Jan-15 12:33N 36°19' E 020°38'1312.5
2017-Jan-15 11:32N 36°19' E 020°54'  
Track history (hours):
 
Tides and Currents Weather Stations Pressure Air Temp Water Temp Dewpoint Dewpoint Depression Visibility Wind Speed Wind Dir Waves Ship Positions

Oluja

Last reported at 2017-Jan-15 23:14 UTC. Time now 2017-Jan-16 10:50 UTC.
Position N 36°21' E 018°08'.

Length 188 m; draft 9.2 m.

Type: Cargo ship. MMSI: 538003345.

Date/timePositionNaut miles runAvg speedWind from/ knotsBaromVisibWave heightAir tempDewpointWater temp
2017-Jan-15 23:14N 36°21' E 018°08'811.8
2017-Jan-15 22:33N 36°21' E 018°18'1211.9
2017-Jan-15 21:33N 36°21' E 018°33'1212.5
2017-Jan-15 20:33N 36°21' E 018°48'1212.4
2017-Jan-15 19:33N 36°21' E 019°04'1212.4
2017-Jan-15 18:33N 36°20' E 019°19'1312.8
2017-Jan-15 17:33N 36°20' E 019°35'1313.0
2017-Jan-15 16:33N 36°20' E 019°51'1212.3
2017-Jan-15 15:34N 36°20' E 020°07'5 4.8
2017-Jan-15 14:33N 36°19' E 020°12'9 8.7
2017-Jan-15 13:33N 36°19' E 020°23'1212.2
2017-Jan-15 12:33N 36°19' E 020°38'1312.5
2017-Jan-15 11:32N 36°19' E 020°54'  

Dump ship's entire track history